sensor_id;sensor_type;location;lat;lon;timestamp;temperature;humidity
13616;DHT22;6879;51.368;6.782;2023-07-29T00:01:17;17.90;99.90
13616;DHT22;6879;51.368;6.782;2023-07-29T00:03:48;17.90;99.90
13616;DHT22;6879;51.368;6.782;2023-07-29T00:06:17;17.90;99.90
13616;DHT22;6879;51.368;6.782;2023-07-29T00:08:49;17.80;99.90
13616;DHT22;6879;51.368;6.782;2023-07-29T00:11:18;17.80;99.90
13616;DHT22;6879;51.368;6.782;2023-07-29T00:13:47;17.80;99.90
13616;DHT22;6879;51.368;6.782;2023-07-29T00:16:18;17.70;99.90
13616;DHT22;6879;51.368;6.782;2023-07-29T00:18:51;17.70;99.90
13616;DHT22;6879;51.368;6.782;2023-07-29T00:21:20;17.70;99.90
13616;DHT22;6879;51.368;6.782;2023-07-29T00:23:49;17.70;99.90
13616;DHT22;6879;51.368;6.782;2023-07-29T00:26:20;17.60;99.90
13616;DHT22;6879;51.368;6.782;2023-07-29T00:28:49;17.70;99.90
13616;DHT22;6879;51.368;6.782;2023-07-29T00:31:18;17.70;99.90
13616;DHT22;6879;51.368;6.782;2023-07-29T00:33:47;17.60;99.90
13616;DHT22;6879;51.368;6.782;2023-07-29T00:36:17;17.70;99.90
13616;DHT22;6879;51.368;6.782;2023-07-29T00:38:46;17.60;99.90
13616;DHT22;6879;51.368;6.782;2023-07-29T00:41:16;17.70;99.90
13616;DHT22;6879;51.368;6.782;2023-07-29T00:43:45;17.80;99.90
13616;DHT22;6879;51.368;6.782;2023-07-29T00:46:15;17.90;99.90
13616;DHT22;6879;51.368;6.782;2023-07-29T00:48:45;18.00;99.90
13616;DHT22;6879;51.368;6.782;2023-07-29T00:51:14;18.00;99.90
13616;DHT22;6879;51.368;6.782;2023-07-29T00:53:46;18.00;99.90
13616;DHT22;6879;51.368;6.782;2023-07-29T00:56:15;17.90;99.90
13616;DHT22;6879;51.368;6.782;2023-07-29T00:58:46;17.90;99.90
13616;DHT22;6879;51.368;6.782;2023-07-29T01:01:14;17.90;99.90
13616;DHT22;6879;51.368;6.782;2023-07-29T01:03:44;18.00;99.90
13616;DHT22;6879;51.368;6.782;2023-07-29T01:06:21;18.00;99.90
13616;DHT22;6879;51.368;6.782;2023-07-29T01:09:01;18.00;99.90
13616;DHT22;6879;51.368;6.782;2023-07-29T01:11:38;18.10;99.90
13616;DHT22;6879;51.368;6.782;2023-07-29T01:14:17;18.20;99.90
13616;DHT22;6879;51.368;6.782;2023-07-29T01:16:52;18.10;99.90
13616;DHT22;6879;51.368;6.782;2023-07-29T01:19:43;18.20;99.90
13616;DHT22;6879;51.368;6.782;2023-07-29T01:22:16;18.10;99.90
13616;DHT22;6879;51.368;6.782;2023-07-29T01:24:48;18.20;99.90
13616;DHT22;6879;51.368;6.782;2023-07-29T01:27:17;18.10;99.90
13616;DHT22;6879;51.368;6.782;2023-07-29T01:29:46;18.20;99.90
13616;DHT22;6879;51.368;6.782;2023-07-29T01:32:25;18.20;99.90
13616;DHT22;6879;51.368;6.782;2023-07-29T01:35:03;18.30;99.90
13616;DHT22;6879;51.368;6.782;2023-07-29T01:37:37;18.30;99.90
13616;DHT22;6879;51.368;6.782;2023-07-29T01:40:10;18.30;99.90
13616;DHT22;6879;51.368;6.782;2023-07-29T01:42:40;18.20;99.90
13616;DHT22;6879;51.368;6.782;2023-07-29T01:45:15;18.30;99.90
13616;DHT22;6879;51.368;6.782;2023-07-29T01:47:44;18.40;99.90
13616;DHT22;6879;51.368;6.782;2023-07-29T01:50:14;18.40;99.90
13616;DHT22;6879;51.368;6.782;2023-07-29T01:52:44;18.40;99.90
13616;DHT22;6879;51.368;6.782;2023-07-29T01:55:15;18.40;99.90
13616;DHT22;6879;51.368;6.782;2023-07-29T01:57:45;18.40;99.90
13616;DHT22;6879;51.368;6.782;2023-07-29T02:00:15;18.40;99.90
13616;DHT22;6879;51.368;6.782;2023-07-29T02:02:45;18.30;99.90
13616;DHT22;6879;51.368;6.782;2023-07-29T02:05:14;18.40;99.90
13616;DHT22;6879;51.368;6.782;2023-07-29T02:07:44;18.50;99.90
13616;DHT22;6879;51.368;6.782;2023-07-29T02:10:16;18.50;99.90
13616;DHT22;6879;51.368;6.782;2023-07-29T02:12:45;18.50;99.90
13616;DHT22;6879;51.368;6.782;2023-07-29T02:15:15;18.50;99.90
13616;DHT22;6879;51.368;6.782;2023-07-29T02:17:43;18.40;99.90
13616;DHT22;6879;51.368;6.782;2023-07-29T02:20:13;18.40;99.90
13616;DHT22;6879;51.368;6.782;2023-07-29T02:22:43;18.40;99.90
13616;DHT22;6879;51.368;6.782;2023-07-29T02:25:12;18.60;99.90
13616;DHT22;6879;51.368;6.782;2023-07-29T02:27:43;18.60;99.90
13616;DHT22;6879;51.368;6.782;2023-07-29T02:30:12;18.70;99.90
13616;DHT22;6879;51.368;6.782;2023-07-29T02:32:41;18.80;99.90
13616;DHT22;6879;51.368;6.782;2023-07-29T02:35:14;18.70;99.90
13616;DHT22;6879;51.368;6.782;2023-07-29T02:37:43;18.80;99.90
13616;DHT22;6879;51.368;6.782;2023-07-29T02:40:12;18.80;99.90
13616;DHT22;6879;51.368;6.782;2023-07-29T02:42:43;18.80;99.90
13616;DHT22;6879;51.368;6.782;2023-07-29T02:45:14;18.80;99.90
13616;DHT22;6879;51.368;6.782;2023-07-29T02:47:43;18.90;99.90
13616;DHT22;6879;51.368;6.782;2023-07-29T02:50:12;18.90;99.90
13616;DHT22;6879;51.368;6.782;2023-07-29T02:52:41;19.00;99.90
13616;DHT22;6879;51.368;6.782;2023-07-29T02:55:10;19.00;99.90
13616;DHT22;6879;51.368;6.782;2023-07-29T02:57:39;19.00;99.90
13616;DHT22;6879;51.368;6.782;2023-07-29T03:00:12;19.10;99.90
13616;DHT22;6879;51.368;6.782;2023-07-29T03:02:42;19.10;99.90
13616;DHT22;6879;51.368;6.782;2023-07-29T03:05:12;19.10;99.90
13616;DHT22;6879;51.368;6.782;2023-07-29T03:07:41;19.10;99.90
13616;DHT22;6879;51.368;6.782;2023-07-29T03:10:11;19.10;99.90
13616;DHT22;6879;51.368;6.782;2023-07-29T03:12:42;19.10;99.90
13616;DHT22;6879;51.368;6.782;2023-07-29T03:15:13;19.10;99.90
13616;DHT22;6879;51.368;6.782;2023-07-29T03:17:45;19.20;99.90
13616;DHT22;6879;51.368;6.782;2023-07-29T03:20:14;19.10;99.90
13616;DHT22;6879;51.368;6.782;2023-07-29T03:22:45;19.10;99.90
13616;DHT22;6879;51.368;6.782;2023-07-29T03:25:14;19.10;99.90
13616;DHT22;6879;51.368;6.782;2023-07-29T03:27:43;19.10;99.90
13616;DHT22;6879;51.368;6.782;2023-07-29T03:30:13;19.00;99.90
13616;DHT22;6879;51.368;6.782;2023-07-29T03:32:43;19.10;99.90
13616;DHT22;6879;51.368;6.782;2023-07-29T03:35:14;19.00;99.90
13616;DHT22;6879;51.368;6.782;2023-07-29T03:37:42;19.00;99.90
13616;DHT22;6879;51.368;6.782;2023-07-29T03:40:12;19.00;99.90
13616;DHT22;6879;51.368;6.782;2023-07-29T03:42:41;19.00;99.90
13616;DHT22;6879;51.368;6.782;2023-07-29T03:45:10;19.00;99.90
13616;DHT22;6879;51.368;6.782;2023-07-29T03:47:40;19.00;99.90
13616;DHT22;6879;51.368;6.782;2023-07-29T03:50:10;19.00;99.90
13616;DHT22;6879;51.368;6.782;2023-07-29T03:52:39;19.00;99.90
13616;DHT22;6879;51.368;6.782;2023-07-29T03:55:09;18.90;99.90
13616;DHT22;6879;51.368;6.782;2023-07-29T03:57:38;18.90;99.90
13616;DHT22;6879;51.368;6.782;2023-07-29T04:00:08;18.90;99.90
13616;DHT22;6879;51.368;6.782;2023-07-29T04:02:47;18.90;99.90
13616;DHT22;6879;51.368;6.782;2023-07-29T04:05:19;18.90;99.90
13616;DHT22;6879;51.368;6.782;2023-07-29T04:07:48;18.90;99.90
13616;DHT22;6879;51.368;6.782;2023-07-29T04:10:17;18.90;99.90
13616;DHT22;6879;51.368;6.782;2023-07-29T04:12:46;18.80;99.90
13616;DHT22;6879;51.368;6.782;2023-07-29T04:15:16;18.80;99.90
13616;DHT22;6879;51.368;6.782;2023-07-29T04:17:53;18.70;99.90
13616;DHT22;6879;51.368;6.782;2023-07-29T04:20:22;18.70;99.90
13616;DHT22;6879;51.368;6.782;2023-07-29T04:22:51;18.60;99.90
13616;DHT22;6879;51.368;6.782;2023-07-29T04:25:20;18.60;99.90
13616;DHT22;6879;51.368;6.782;2023-07-29T04:27:49;18.60;99.90
13616;DHT22;6879;51.368;6.782;2023-07-29T04:30:18;18.60;99.90
13616;DHT22;6879;51.368;6.782;2023-07-29T04:32:46;18.50;99.90
13616;DHT22;6879;51.368;6.782;2023-07-29T04:35:17;18.50;99.90
13616;DHT22;6879;51.368;6.782;2023-07-29T04:37:48;18.50;99.90
13616;DHT22;6879;51.368;6.782;2023-07-29T04:40:17;18.50;99.90
13616;DHT22;6879;51.368;6.782;2023-07-29T04:42:45;18.50;99.90
13616;DHT22;6879;51.368;6.782;2023-07-29T04:45:14;18.50;99.90
13616;DHT22;6879;51.368;6.782;2023-07-29T04:47:43;18.40;99.90
13616;DHT22;6879;51.368;6.782;2023-07-29T04:50:12;18.40;99.90
13616;DHT22;6879;51.368;6.782;2023-07-29T04:52:43;18.40;99.90
13616;DHT22;6879;51.368;6.782;2023-07-29T04:55:12;18.40;99.90
13616;DHT22;6879;51.368;6.782;2023-07-29T04:57:41;18.40;99.90
13616;DHT22;6879;51.368;6.782;2023-07-29T05:00:11;18.40;99.90
13616;DHT22;6879;51.368;6.782;2023-07-29T05:02:41;18.30;99.90
13616;DHT22;6879;51.368;6.782;2023-07-29T05:05:10;18.30;99.90
13616;DHT22;6879;51.368;6.782;2023-07-29T05:07:39;18.30;99.90
13616;DHT22;6879;51.368;6.782;2023-07-29T05:10:09;18.40;99.90
13616;DHT22;6879;51.368;6.782;2023-07-29T05:12:38;18.40;99.90
13616;DHT22;6879;51.368;6.782;2023-07-29T05:15:08;18.40;99.90
13616;DHT22;6879;51.368;6.782;2023-07-29T05:17:37;18.40;99.90
13616;DHT22;6879;51.368;6.782;2023-07-29T05:20:08;18.40;99.90
13616;DHT22;6879;51.368;6.782;2023-07-29T05:22:37;18.40;99.90
13616;DHT22;6879;51.368;6.782;2023-07-29T05:25:09;18.40;99.90
13616;DHT22;6879;51.368;6.782;2023-07-29T05:27:37;18.50;99.90
13616;DHT22;6879;51.368;6.782;2023-07-29T05:30:07;18.50;99.90
13616;DHT22;6879;51.368;6.782;2023-07-29T05:32:36;18.50;99.90
13616;DHT22;6879;51.368;6.782;2023-07-29T05:35:06;18.50;99.90
13616;DHT22;6879;51.368;6.782;2023-07-29T05:37:37;18.40;99.90
13616;DHT22;6879;51.368;6.782;2023-07-29T05:40:09;18.40;99.90
13616;DHT22;6879;51.368;6.782;2023-07-29T05:42:39;18.50;99.90
13616;DHT22;6879;51.368;6.782;2023-07-29T05:45:09;18.50;99.90
13616;DHT22;6879;51.368;6.782;2023-07-29T05:47:38;18.50;99.90
13616;DHT22;6879;51.368;6.782;2023-07-29T05:50:08;18.50;99.90
13616;DHT22;6879;51.368;6.782;2023-07-29T05:52:37;18.50;99.90
13616;DHT22;6879;51.368;6.782;2023-07-29T05:55:09;18.60;99.90
13616;DHT22;6879;51.368;6.782;2023-07-29T05:57:38;18.70;99.90
13616;DHT22;6879;51.368;6.782;2023-07-29T06:00:11;18.70;99.90
13616;DHT22;6879;51.368;6.782;2023-07-29T06:02:40;18.70;99.90
13616;DHT22;6879;51.368;6.782;2023-07-29T06:05:14;18.70;99.90
13616;DHT22;6879;51.368;6.782;2023-07-29T06:07:44;18.70;99.90
13616;DHT22;6879;51.368;6.782;2023-07-29T06:10:17;18.80;99.90
13616;DHT22;6879;51.368;6.782;2023-07-29T06:12:46;18.90;99.90
13616;DHT22;6879;51.368;6.782;2023-07-29T06:15:15;19.00;99.90
13616;DHT22;6879;51.368;6.782;2023-07-29T06:17:44;19.10;99.90
13616;DHT22;6879;51.368;6.782;2023-07-29T06:20:13;19.10;99.90
13616;DHT22;6879;51.368;6.782;2023-07-29T06:22:42;19.10;99.90
13616;DHT22;6879;51.368;6.782;2023-07-29T06:25:11;19.10;99.90
13616;DHT22;6879;51.368;6.782;2023-07-29T06:27:42;19.00;99.90
13616;DHT22;6879;51.368;6.782;2023-07-29T06:30:11;19.10;99.90
13616;DHT22;6879;51.368;6.782;2023-07-29T06:32:41;19.00;99.90
13616;DHT22;6879;51.368;6.782;2023-07-29T06:35:10;19.00;99.90
13616;DHT22;6879;51.368;6.782;2023-07-29T06:37:51;19.10;99.90
13616;DHT22;6879;51.368;6.782;2023-07-29T06:40:21;19.30;99.90
13616;DHT22;6879;51.368;6.782;2023-07-29T06:42:52;19.40;99.90
13616;DHT22;6879;51.368;6.782;2023-07-29T06:45:21;19.60;99.90
13616;DHT22;6879;51.368;6.782;2023-07-29T06:47:50;19.80;99.90
13616;DHT22;6879;51.368;6.782;2023-07-29T06:50:19;19.90;99.90
13616;DHT22;6879;51.368;6.782;2023-07-29T06:52:48;19.90;99.90
13616;DHT22;6879;51.368;6.782;2023-07-29T06:55:18;19.90;99.90
13616;DHT22;6879;51.368;6.782;2023-07-29T06:57:47;19.90;99.90
13616;DHT22;6879;51.368;6.782;2023-07-29T07:00:17;19.80;99.90
13616;DHT22;6879;51.368;6.782;2023-07-29T07:02:49;19.70;99.90
13616;DHT22;6879;51.368;6.782;2023-07-29T07:05:19;19.70;99.90
13616;DHT22;6879;51.368;6.782;2023-07-29T07:07:48;19.70;99.90
13616;DHT22;6879;51.368;6.782;2023-07-29T07:10:17;19.80;99.90
13616;DHT22;6879;51.368;6.782;2023-07-29T07:12:46;19.90;99.90
13616;DHT22;6879;51.368;6.782;2023-07-29T07:15:17;19.80;99.90
13616;DHT22;6879;51.368;6.782;2023-07-29T07:17:45;19.90;99.90
13616;DHT22;6879;51.368;6.782;2023-07-29T07:20:15;20.00;99.90
13616;DHT22;6879;51.368;6.782;2023-07-29T07:22:44;20.00;99.90
13616;DHT22;6879;51.368;6.782;2023-07-29T07:25:16;19.90;99.90
13616;DHT22;6879;51.368;6.782;2023-07-29T07:27:45;20.00;99.90
13616;DHT22;6879;51.368;6.782;2023-07-29T07:30:18;20.20;99.90
13616;DHT22;6879;51.368;6.782;2023-07-29T07:32:47;20.30;99.90
13616;DHT22;6879;51.368;6.782;2023-07-29T07:35:18;20.50;99.90
13616;DHT22;6879;51.368;6.782;2023-07-29T07:37:47;20.70;99.90
13616;DHT22;6879;51.368;6.782;2023-07-29T07:40:17;20.90;99.90
13616;DHT22;6879;51.368;6.782;2023-07-29T07:42:47;20.90;99.90
13616;DHT22;6879;51.368;6.782;2023-07-29T07:45:19;20.90;99.90
13616;DHT22;6879;51.368;6.782;2023-07-29T07:47:49;21.00;99.90
13616;DHT22;6879;51.368;6.782;2023-07-29T07:50:18;20.90;99.90
13616;DHT22;6879;51.368;6.782;2023-07-29T07:52:47;20.90;99.90
13616;DHT22;6879;51.368;6.782;2023-07-29T07:55:17;21.00;99.90
13616;DHT22;6879;51.368;6.782;2023-07-29T07:57:46;21.10;99.90
13616;DHT22;6879;51.368;6.782;2023-07-29T08:00:16;21.40;99.90
13616;DHT22;6879;51.368;6.782;2023-07-29T08:02:48;21.40;99.90
13616;DHT22;6879;51.368;6.782;2023-07-29T08:05:17;21.70;99.90
13616;DHT22;6879;51.368;6.782;2023-07-29T08:07:49;21.70;99.90
13616;DHT22;6879;51.368;6.782;2023-07-29T08:10:18;21.60;99.90
13616;DHT22;6879;51.368;6.782;2023-07-29T08:12:47;21.70;99.90
13616;DHT22;6879;51.368;6.782;2023-07-29T08:15:18;21.90;99.90
13616;DHT22;6879;51.368;6.782;2023-07-29T08:17:48;22.30;99.90
13616;DHT22;6879;51.368;6.782;2023-07-29T08:20:17;22.60;99.90
13616;DHT22;6879;51.368;6.782;2023-07-29T08:22:46;22.40;99.90
13616;DHT22;6879;51.368;6.782;2023-07-29T08:25:15;21.80;99.90
13616;DHT22;6879;51.368;6.782;2023-07-29T08:27:43;21.60;99.90
13616;DHT22;6879;51.368;6.782;2023-07-29T08:30:12;21.50;99.90
13616;DHT22;6879;51.368;6.782;2023-07-29T08:32:41;21.60;99.90
13616;DHT22;6879;51.368;6.782;2023-07-29T08:35:13;21.70;99.90
13616;DHT22;6879;51.368;6.782;2023-07-29T08:37:45;21.80;99.90
13616;DHT22;6879;51.368;6.782;2023-07-29T08:40:14;21.90;99.90
13616;DHT22;6879;51.368;6.782;2023-07-29T08:42:45;22.10;99.90
13616;DHT22;6879;51.368;6.782;2023-07-29T08:45:17;22.20;99.90
13616;DHT22;6879;51.368;6.782;2023-07-29T08:47:46;22.20;99.90
13616;DHT22;6879;51.368;6.782;2023-07-29T08:50:18;22.20;99.90
13616;DHT22;6879;51.368;6.782;2023-07-29T08:52:48;22.40;99.90
13616;DHT22;6879;51.368;6.782;2023-07-29T08:55:18;22.50;99.90
13616;DHT22;6879;51.368;6.782;2023-07-29T08:57:47;22.60;99.90
13616;DHT22;6879;51.368;6.782;2023-07-29T09:00:17;22.60;99.90
13616;DHT22;6879;51.368;6.782;2023-07-29T09:02:47;22.80;99.90
13616;DHT22;6879;51.368;6.782;2023-07-29T09:05:20;23.30;99.90
13616;DHT22;6879;51.368;6.782;2023-07-29T09:07:51;23.50;99.90
13616;DHT22;6879;51.368;6.782;2023-07-29T09:10:22;23.50;99.90
13616;DHT22;6879;51.368;6.782;2023-07-29T09:12:52;23.50;99.90
13616;DHT22;6879;51.368;6.782;2023-07-29T09:15:28;23.30;99.90
13616;DHT22;6879;51.368;6.782;2023-07-29T09:17:58;23.40;99.90
13616;DHT22;6879;51.368;6.782;2023-07-29T09:20:33;23.40;99.90
13616;DHT22;6879;51.368;6.782;2023-07-29T09:23:02;23.20;99.90
13616;DHT22;6879;51.368;6.782;2023-07-29T09:25:31;23.10;99.90
13616;DHT22;6879;51.368;6.782;2023-07-29T09:28:00;23.10;99.90
13616;DHT22;6879;51.368;6.782;2023-07-29T09:30:30;23.00;99.90
13616;DHT22;6879;51.368;6.782;2023-07-29T09:32:59;23.10;99.90
13616;DHT22;6879;51.368;6.782;2023-07-29T09:35:30;23.00;99.90
13616;DHT22;6879;51.368;6.782;2023-07-29T09:41:47;22.60;99.90
13616;DHT22;6879;51.368;6.782;2023-07-29T09:44:38;22.50;99.90
13616;DHT22;6879;51.368;6.782;2023-07-29T09:47:25;22.20;99.90
13616;DHT22;6879;51.368;6.782;2023-07-29T09:49:59;22.30;99.90
13616;DHT22;6879;51.368;6.782;2023-07-29T09:52:32;22.40;99.90
13616;DHT22;6879;51.368;6.782;2023-07-29T09:55:03;22.70;99.90
13616;DHT22;6879;51.368;6.782;2023-07-29T09:57:34;23.00;99.90
13616;DHT22;6879;51.368;6.782;2023-07-29T10:00:18;23.40;99.90
13616;DHT22;6879;51.368;6.782;2023-07-29T10:02:48;23.90;99.90
13616;DHT22;6879;51.368;6.782;2023-07-29T10:05:22;24.60;99.90
13616;DHT22;6879;51.368;6.782;2023-07-29T10:08:02;25.40;97.40
13616;DHT22;6879;51.368;6.782;2023-07-29T10:10:34;26.00;96.40
13616;DHT22;6879;51.368;6.782;2023-07-29T10:13:06;26.40;93.70
13616;DHT22;6879;51.368;6.782;2023-07-29T10:15:36;26.00;94.60
13616;DHT22;6879;51.368;6.782;2023-07-29T10:18:17;25.80;93.80
13616;DHT22;6879;51.368;6.782;2023-07-29T10:20:51;25.80;94.00
13616;DHT22;6879;51.368;6.782;2023-07-29T10:23:25;25.50;95.10
13616;DHT22;6879;51.368;6.782;2023-07-29T10:26:03;24.90;95.90
13616;DHT22;6879;51.368;6.782;2023-07-29T10:28:33;24.70;97.00
13616;DHT22;6879;51.368;6.782;2023-07-29T10:31:10;24.60;97.20
13616;DHT22;6879;51.368;6.782;2023-07-29T10:33:40;24.70;98.20
13616;DHT22;6879;51.368;6.782;2023-07-29T10:36:10;24.80;97.60
13616;DHT22;6879;51.368;6.782;2023-07-29T10:38:46;24.70;97.80
13616;DHT22;6879;51.368;6.782;2023-07-29T10:41:15;24.40;98.40
13616;DHT22;6879;51.368;6.782;2023-07-29T10:43:48;24.00;99.40
13616;DHT22;6879;51.368;6.782;2023-07-29T10:46:18;23.80;99.80
13616;DHT22;6879;51.368;6.782;2023-07-29T10:48:55;23.80;99.90
13616;DHT22;6879;51.368;6.782;2023-07-29T10:51:26;24.00;99.90
13616;DHT22;6879;51.368;6.782;2023-07-29T10:54:00;24.10;99.50
13616;DHT22;6879;51.368;6.782;2023-07-29T10:56:31;24.80;98.80
13616;DHT22;6879;51.368;6.782;2023-07-29T10:59:30;25.90;94.50
13616;DHT22;6879;51.368;6.782;2023-07-29T11:02:01;26.20;94.10
13616;DHT22;6879;51.368;6.782;2023-07-29T11:04:30;26.80;90.50
13616;DHT22;6879;51.368;6.782;2023-07-29T11:07:20;27.00;90.30
13616;DHT22;6879;51.368;6.782;2023-07-29T11:09:58;26.90;90.00
13616;DHT22;6879;51.368;6.782;2023-07-29T11:12:41;26.10;91.80
13616;DHT22;6879;51.368;6.782;2023-07-29T11:15:18;25.30;94.20
13616;DHT22;6879;51.368;6.782;2023-07-29T11:17:49;24.60;96.50
13616;DHT22;6879;51.368;6.782;2023-07-29T11:20:20;23.90;97.80
13616;DHT22;6879;51.368;6.782;2023-07-29T11:22:53;23.50;99.90
13616;DHT22;6879;51.368;6.782;2023-07-29T11:25:28;23.50;99.90
13616;DHT22;6879;51.368;6.782;2023-07-29T11:27:59;23.70;99.90
13616;DHT22;6879;51.368;6.782;2023-07-29T11:30:34;24.20;99.90
13616;DHT22;6879;51.368;6.782;2023-07-29T11:33:03;25.50;95.80
13616;DHT22;6879;51.368;6.782;2023-07-29T11:35:35;25.80;93.80
13616;DHT22;6879;51.368;6.782;2023-07-29T11:38:04;26.20;92.60
13616;DHT22;6879;51.368;6.782;2023-07-29T11:40:35;26.60;91.70
13616;DHT22;6879;51.368;6.782;2023-07-29T11:43:04;27.10;90.20
13616;DHT22;6879;51.368;6.782;2023-07-29T11:46:01;27.90;87.90
13616;DHT22;6879;51.368;6.782;2023-07-29T11:48:33;28.60;84.80
13616;DHT22;6879;51.368;6.782;2023-07-29T11:51:03;28.40;85.00
13616;DHT22;6879;51.368;6.782;2023-07-29T11:53:32;29.00;83.90
13616;DHT22;6879;51.368;6.782;2023-07-29T11:56:03;29.00;82.60
13616;DHT22;6879;51.368;6.782;2023-07-29T11:58:33;27.90;84.20
13616;DHT22;6879;51.368;6.782;2023-07-29T12:01:05;27.00;85.60
13616;DHT22;6879;51.368;6.782;2023-07-29T12:03:35;26.60;86.40
13616;DHT22;6879;51.368;6.782;2023-07-29T12:06:04;26.60;87.90
13616;DHT22;6879;51.368;6.782;2023-07-29T12:08:33;27.20;87.00
13616;DHT22;6879;51.368;6.782;2023-07-29T12:11:04;27.90;85.60
13616;DHT22;6879;51.368;6.782;2023-07-29T12:13:37;28.40;84.20
13616;DHT22;6879;51.368;6.782;2023-07-29T12:16:06;29.30;82.10
13616;DHT22;6879;51.368;6.782;2023-07-29T12:18:36;29.30;81.90
13616;DHT22;6879;51.368;6.782;2023-07-29T12:21:05;29.30;82.20
13616;DHT22;6879;51.368;6.782;2023-07-29T12:23:34;28.20;84.30
13616;DHT22;6879;51.368;6.782;2023-07-29T12:26:04;26.80;88.00
13616;DHT22;6879;51.368;6.782;2023-07-29T12:28:33;26.00;91.30
13616;DHT22;6879;51.368;6.782;2023-07-29T12:31:07;26.80;89.70
13616;DHT22;6879;51.368;6.782;2023-07-29T12:33:36;28.60;85.40
13616;DHT22;6879;51.368;6.782;2023-07-29T12:36:08;29.80;82.60
13616;DHT22;6879;51.368;6.782;2023-07-29T12:38:37;30.80;79.70
13616;DHT22;6879;51.368;6.782;2023-07-29T12:41:08;30.90;77.20
13616;DHT22;6879;51.368;6.782;2023-07-29T12:43:37;30.90;77.70
13616;DHT22;6879;51.368;6.782;2023-07-29T12:46:08;29.90;79.50
13616;DHT22;6879;51.368;6.782;2023-07-29T12:48:37;29.00;81.30
13616;DHT22;6879;51.368;6.782;2023-07-29T12:51:06;28.40;83.10
13616;DHT22;6879;51.368;6.782;2023-07-29T12:53:35;27.90;84.60
13616;DHT22;6879;51.368;6.782;2023-07-29T12:56:07;28.50;83.30
13616;DHT22;6879;51.368;6.782;2023-07-29T12:58:39;28.40;83.10
13616;DHT22;6879;51.368;6.782;2023-07-29T13:01:08;28.60;82.80
13616;DHT22;6879;51.368;6.782;2023-07-29T13:03:40;29.30;82.00
13616;DHT22;6879;51.368;6.782;2023-07-29T13:06:13;31.50;78.10
13616;DHT22;6879;51.368;6.782;2023-07-29T13:08:43;31.70;75.50
13616;DHT22;6879;51.368;6.782;2023-07-29T13:11:15;30.50;77.90
13616;DHT22;6879;51.368;6.782;2023-07-29T13:13:44;29.40;80.30
13616;DHT22;6879;51.368;6.782;2023-07-29T13:16:13;28.20;82.70
13616;DHT22;6879;51.368;6.782;2023-07-29T13:18:43;26.70;86.40
13616;DHT22;6879;51.368;6.782;2023-07-29T13:21:12;26.60;86.80
13616;DHT22;6879;51.368;6.782;2023-07-29T13:23:40;26.20;87.90
13616;DHT22;6879;51.368;6.782;2023-07-29T13:26:09;25.80;89.80
13616;DHT22;6879;51.368;6.782;2023-07-29T13:28:40;25.60;91.50
13616;DHT22;6879;51.368;6.782;2023-07-29T13:31:09;25.40;92.10
13616;DHT22;6879;51.368;6.782;2023-07-29T13:33:37;24.90;92.40
13616;DHT22;6879;51.368;6.782;2023-07-29T13:36:06;24.60;95.60
13616;DHT22;6879;51.368;6.782;2023-07-29T13:38:36;24.20;96.90
13616;DHT22;6879;51.368;6.782;2023-07-29T13:41:04;23.90;99.90
13616;DHT22;6879;51.368;6.782;2023-07-29T13:43:33;23.50;99.90
13616;DHT22;6879;51.368;6.782;2023-07-29T13:46:03;22.80;99.90
13616;DHT22;6879;51.368;6.782;2023-07-29T13:48:32;21.80;99.90
13616;DHT22;6879;51.368;6.782;2023-07-29T13:51:03;21.00;99.90
13616;DHT22;6879;51.368;6.782;2023-07-29T13:53:31;20.60;99.90
13616;DHT22;6879;51.368;6.782;2023-07-29T13:56:00;20.40;99.90
13616;DHT22;6879;51.368;6.782;2023-07-29T13:58:29;20.20;99.90
13616;DHT22;6879;51.368;6.782;2023-07-29T14:00:57;20.20;99.90
13616;DHT22;6879;51.368;6.782;2023-07-29T14:03:28;20.10;99.90
13616;DHT22;6879;51.368;6.782;2023-07-29T14:05:56;20.20;99.90
13616;DHT22;6879;51.368;6.782;2023-07-29T14:08:25;20.40;99.90
13616;DHT22;6879;51.368;6.782;2023-07-29T14:10:53;20.70;99.90
13616;DHT22;6879;51.368;6.782;2023-07-29T14:13:22;21.00;99.90
13616;DHT22;6879;51.368;6.782;2023-07-29T14:15:51;21.40;99.90
13616;DHT22;6879;51.368;6.782;2023-07-29T14:18:20;22.00;99.90
13616;DHT22;6879;51.368;6.782;2023-07-29T14:20:50;22.90;99.90
13616;DHT22;6879;51.368;6.782;2023-07-29T14:23:19;25.40;99.90
13616;DHT22;6879;51.368;6.782;2023-07-29T14:25:48;27.10;99.90
13616;DHT22;6879;51.368;6.782;2023-07-29T14:28:16;27.50;99.90
13616;DHT22;6879;51.368;6.782;2023-07-29T14:30:45;28.30;99.90
13616;DHT22;6879;51.368;6.782;2023-07-29T14:33:14;28.80;97.40
13616;DHT22;6879;51.368;6.782;2023-07-29T14:35:42;28.50;96.20
13616;DHT22;6879;51.368;6.782;2023-07-29T14:38:13;28.00;96.20
13616;DHT22;6879;51.368;6.782;2023-07-29T14:40:41;28.10;95.30
13616;DHT22;6879;51.368;6.782;2023-07-29T14:43:10;27.40;94.00
13616;DHT22;6879;51.368;6.782;2023-07-29T14:45:39;26.40;96.00
13616;DHT22;6879;51.368;6.782;2023-07-29T14:48:07;25.40;96.40
13616;DHT22;6879;51.368;6.782;2023-07-29T14:50:36;24.30;99.20
13616;DHT22;6879;51.368;6.782;2023-07-29T14:53:05;23.70;99.90
13616;DHT22;6879;51.368;6.782;2023-07-29T14:55:35;23.40;99.90
13616;DHT22;6879;51.368;6.782;2023-07-29T14:58:03;23.10;99.90
13616;DHT22;6879;51.368;6.782;2023-07-29T15:00:32;22.80;99.90
13616;DHT22;6879;51.368;6.782;2023-07-29T15:03:01;22.70;99.90
13616;DHT22;6879;51.368;6.782;2023-07-29T15:05:29;22.70;99.90
13616;DHT22;6879;51.368;6.782;2023-07-29T15:07:58;22.80;99.90
13616;DHT22;6879;51.368;6.782;2023-07-29T15:10:27;22.60;99.90
13616;DHT22;6879;51.368;6.782;2023-07-29T15:12:57;22.20;99.90
13616;DHT22;6879;51.368;6.782;2023-07-29T15:15:26;22.00;99.90
13616;DHT22;6879;51.368;6.782;2023-07-29T15:17:55;21.90;99.90
13616;DHT22;6879;51.368;6.782;2023-07-29T15:20:25;22.00;99.90
13616;DHT22;6879;51.368;6.782;2023-07-29T15:22:54;22.40;99.90
13616;DHT22;6879;51.368;6.782;2023-07-29T15:25:22;23.20;99.90
13616;DHT22;6879;51.368;6.782;2023-07-29T15:27:51;23.40;99.90
13616;DHT22;6879;51.368;6.782;2023-07-29T15:30:22;23.80;99.90
13616;DHT22;6879;51.368;6.782;2023-07-29T15:32:51;25.70;99.90
13616;DHT22;6879;51.368;6.782;2023-07-29T15:35:22;27.90;99.90
13616;DHT22;6879;51.368;6.782;2023-07-29T15:37:54;29.70;91.50
13616;DHT22;6879;51.368;6.782;2023-07-29T15:40:27;30.90;87.50
13616;DHT22;6879;51.368;6.782;2023-07-29T15:42:55;31.30;87.00
13616;DHT22;6879;51.368;6.782;2023-07-29T15:45:26;32.20;82.70
13616;DHT22;6879;51.368;6.782;2023-07-29T15:47:55;32.50;80.10
13616;DHT22;6879;51.368;6.782;2023-07-29T15:50:24;32.40;79.00
13616;DHT22;6879;51.368;6.782;2023-07-29T15:52:52;33.20;77.70
13616;DHT22;6879;51.368;6.782;2023-07-29T15:55:21;33.70;77.20
13616;DHT22;6879;51.368;6.782;2023-07-29T15:57:50;33.90;75.90
13616;DHT22;6879;51.368;6.782;2023-07-29T16:00:19;34.40;73.80
13616;DHT22;6879;51.368;6.782;2023-07-29T16:02:51;34.80;74.00
13616;DHT22;6879;51.368;6.782;2023-07-29T16:05:26;34.40;74.30
13616;DHT22;6879;51.368;6.782;2023-07-29T16:07:56;32.50;76.10
13616;DHT22;6879;51.368;6.782;2023-07-29T16:10:25;31.70;78.50